EKKA/KRP METAR and TAF weather

Enter ICAO airport designator
Station Type Date Time Source
EKKA METAR 2019/12/10 03:20 UTC NOAA

EKKA 100320Z AUTO 24005KT 9999 NCD M00/M02 Q1014


Station Type Date Time Source
EKKA Decoded METAR 2019/12/10 03:20 UTC NOAA

Karup, Denmark (EKKA) 56-18N 009-07E 53M
Dec 09, 2019 - 10:20 PM EST / 2019.12.10 0320 UTC
Wind: from the WSW (240 degrees) at 6 MPH (5 KT):0
Visibility: greater than 7 mile(s):0
Temperature: 32 F (0 C)
Windchill: 26 F (-3 C):1
Dew Point: 28 F (-2 C)
Relative Humidity: 86%
Pressure (altimeter): 29.94 in. Hg (1014 hPa)
ob: EKKA 100320Z AUTO 24005KT 9999 NCD M00/M02 Q1014
cycle: 3

Station Type Date Time Source
EKKA TAF 2019/12/10 03:31 UTC NOAA

TAF EKKA 100224Z 1003/1103 26006KT 9999 SCT030
BECMG 1008/1011 18012KT
BECMG 1015/1018 18018G28KT
BECMG 1018/1021 18020G35KT
BECMG 1021/1024 7000 -RADZ BKN014
TEMPO 1101/1103 3000 RA BKN008

Example: see airport list